Portada
METAR-TAF:

METAR-TAF

Aeroports :

Owatonna, Minnesota, Estats Units d'Amèrica

Owatonna Degner Regional Airport

latitud: 44-07N, longitud: 093-15W, altitud: 350 m

Observació

L'informe es va fer fa 25 minuts, a les 01:53 UTC
Vent 13 kt del Sud/Sud-Est amb ràfegues de 20 kt
Temperatura 3°C
Humitat 75%
Pressió 1004 hPa
Visibilitat: 16.1 km
Cel cobert a una alçada de 5500 ft

METAR: KOWA 190153Z AUTO 16013G20KT 10SM OVC055 03/M01 A2964 RMK AO2

Hora: 20:18 (02:18 UTC)


TAF: manca

Observacions i pronòstics meteorològics de més de 4000 aeroports (METAR i TAF).

Les estacions disponibles són els punts grocs i vermells al mapa.

Posi el ratolí al punt desitjat per veure el nom de l'estació.

Feu clic per veure les observacions i els pronòstics meteorològics.

Per canviar el mapa: feu clic els botons verds amb una creu de color negre per apropar; al botó verd amb un guió per allunyar la imatge; o en les fletxes verdes per a mapes adjacents.


METAR-TAF: